Aviation Digital Data Service (ADDS)

Output produced by METARs form (1521 UTC 31 July 2015)
found at http://www.aviationweather.gov/adds/metars/
 
KSEG 311453Z AUTO 00000KT 10SM CLR 27/17 A2995 RMK AO2 SLP137 T02720167 58001
KSEG 311353Z AUTO VRB03KT 10SM CLR 26/17 A2995 RMK AO2 SLP138 T02610172
KSEG 311253Z AUTO 00000KT 10SM CLR 23/17 A2995 RMK AO2 SLP139 T02280172
KSEG 311153Z AUTO 00000KT 10SM CLR 19/17 A2995 RMK AO2 SLP139 70001 T01940167 10194 20144 53012
KSEG 311053Z AUTO 00000KT 7SM CLR 16/16 A2994 RMK AO2 SLP135 T01610156
KSEG 310953Z AUTO 00000KT 7SM CLR 15/14 A2992 RMK AO2 SLP129 T01500139
KSEG 310853Z AUTO 00000KT 7SM CLR 15/14 A2991 RMK AO2 SLP126 T01500139 57003
KSEG 310753Z AUTO 00000KT 7SM CLR 16/14 A2992 RMK AO2 SLP126 T01560144
KSEG 310653Z AUTO 00000KT 7SM CLR 16/15 A2992 RMK AO2 SLP129 T01560150
KSEG 310553Z AUTO 00000KT 9SM CLR 16/15 A2992 RMK AO2 SLP129 60000 T01610150 10233 20161 50003
KSEG 310453Z AUTO 00000KT 7SM CLR 17/16 A2993 RMK AO2 SLP133 T01720161 403110172
KSEG 310353Z AUTO 00000KT 10SM FEW070 18/17 A2993 RMK AO2 SLP131 T01830172
KSEG 310253Z AUTO 00000KT 10SM CLR 19/18 A2992 RMK AO2 SLP127 60000 T01890178 51019
KSEG 310153Z AUTO 00000KT 10SM CLR 19/19 A2990 RMK AO2 RAE05 SLP121 P0000 T01940189
KSEG 310053Z AUTO 00000KT 10SM -RA FEW070 21/20 A2988 RMK AO2 RAB45 SLP114 P0000 T02110200
KSEG 302353Z AUTO 00000KT 10SM FEW070 23/21 A2986 RMK AO2 SLP107 T02330206 10311 20233 53009
KSEG 302253Z AUTO VRB03KT 10SM FEW070 28/18 A2984 RMK AO2 SLP101 T02780183
KSEG 302153Z AUTO VRB04KT 10SM CLR 30/17 A2984 RMK AO2 SLP098 T03000167
KSEG 302053Z AUTO 30005KT 10SM FEW060 30/18 A2983 RMK AO2 SLP097 T03000178 58010
KSEG 301953Z AUTO VRB05KT 10SM BKN055 31/21 A2984 RMK AO2 SLP099 T03110206
KSEG 301853Z AUTO VRB05KT 10SM SCT033 SCT043 31/23 A2986 RMK AO2 SLP105 T03060228
KSEG 301753Z AUTO 27006KT 10SM CLR 29/23 A2986 RMK AO2 SLP107 60001 T02890233 10300 20256 58014
KSEG 301653Z AUTO 21004KT 8SM SCT016 27/23 A2988 RMK AO2 RAE1559 SLP114 P0000 T02670233
KSEG 301553Z AUTO VRB03KT 5SM -RA BR FEW047 OVC085 26/23 A2990 RMK AO2 SLP122 P0001 T02560233
KSEG 301453Z AUTO VRB03KT 6SM -RA FEW018 SCT028 OVC095 27/24 A2990 RMK AO2 RAB33 SLP122 P0000 60000 T02670239 51004
KSEG 301422Z AUTO VRB03KT 8SM SCT016 SCT021 BKN029 27/24 A2989 RMK AO2 T02720239
KSEG 301353Z AUTO 00000KT 7SM FEW012 BKN110 27/23 A2989 RMK AO2 SLP118 T02670233
KSEG 301333Z AUTO VRB04KT 7SM SCT014 SCT021 BKN110 27/23 A2989 RMK AO2 T02670233
KSEG 301253Z AUTO VRB03KT 7SM OVC011 27/23 A2989 RMK AO2 SLP118 T02670233
KSEG 301153Z AUTO 00000KT 7SM OVC011 26/23 A2989 RMK AO2 SLP117 T02560233 10256 20222 50001
KSEG 301053Z AUTO 00000KT 6SM BR BKN014 24/23 A2990 RMK AO2 SLP119 T02440233
KSEG 301035Z AUTO 00000KT 5SM BR SCT015 24/23 A2989 RMK AO2 T02440228
KSEG 300953Z AUTO 00000KT 5SM BR OVC015 24/23 A2989 RMK AO2 SLP117 T02390228
KSEG 300853Z AUTO 00000KT 3SM BR BKN016 22/22 A2989 RMK AO2 SLP117 T02220217 56011
KSEG 300846Z AUTO 00000KT 3SM BR BKN017 22/22 A2989 RMK AO2 T02220217
KSEG 300753Z AUTO 00000KT 5SM BR FEW013 SCT020 BKN075 23/22 A2989 RMK AO2 SLP118 T02280217
KSEG 300653Z AUTO 00000KT 6SM BR CLR 23/22 A2991 RMK AO2 SLP124 T02280222
KSEG 300553Z AUTO 00000KT 7SM CLR 23/22 A2992 RMK AO2 SLP128 T02280222 10278 20228 58004
KSEG 300453Z AUTO 00000KT 7SM CLR 23/22 A2993 RMK AO2 SLP131 T02330222 403220172
KSEG 300353Z AUTO 20003KT 10SM CLR 25/23 A2993 RMK AO2 SLP130 T02500228